sensor_id;sensor_type;location;lat;lon;timestamp;pressure;altitude;pressure_sealevel;temperature;humidity
44457;BME280;30159;49.316;8.558;2023-05-12T00:01:17;100184.09;;;13.96;100.00
44457;BME280;30159;49.316;8.558;2023-05-12T00:03:44;100179.00;;;13.94;100.00
44457;BME280;30159;49.316;8.558;2023-05-12T00:06:10;100173.38;;;13.90;100.00
44457;BME280;30159;49.316;8.558;2023-05-12T00:08:38;100168.75;;;13.91;100.00
44457;BME280;30159;49.316;8.558;2023-05-12T00:11:05;100170.50;;;13.87;100.00
44457;BME280;30159;49.316;8.558;2023-05-12T00:13:31;100150.34;;;13.65;100.00
44457;BME280;30159;49.316;8.558;2023-05-12T00:15:58;100158.88;;;13.73;100.00
44457;BME280;30159;49.316;8.558;2023-05-12T00:18:25;100164.19;;;13.78;100.00
44457;BME280;30159;49.316;8.558;2023-05-12T00:20:52;100179.22;;;13.84;100.00
44457;BME280;30159;49.316;8.558;2023-05-12T00:23:19;100171.09;;;13.84;100.00
44457;BME280;30159;49.316;8.558;2023-05-12T00:25:48;100170.09;;;13.80;100.00
44457;BME280;30159;49.316;8.558;2023-05-12T00:28:15;100176.00;;;13.82;100.00
44457;BME280;30159;49.316;8.558;2023-05-12T00:30:42;100175.41;;;13.85;100.00
44457;BME280;30159;49.316;8.558;2023-05-12T00:33:08;100169.50;;;13.83;100.00
44457;BME280;30159;49.316;8.558;2023-05-12T00:35:35;100168.50;;;13.79;100.00
44457;BME280;30159;49.316;8.558;2023-05-12T00:38:01;100168.38;;;13.84;100.00
44457;BME280;30159;49.316;8.558;2023-05-12T00:40:28;100171.59;;;13.86;100.00
44457;BME280;30159;49.316;8.558;2023-05-12T00:42:56;100163.44;;;13.86;100.00
44457;BME280;30159;49.316;8.558;2023-05-12T00:45:22;100162.22;;;13.92;100.00
44457;BME280;30159;49.316;8.558;2023-05-12T00:47:50;100108.75;;;13.61;100.00
44457;BME280;30159;49.316;8.558;2023-05-12T00:50:17;100159.31;;;13.88;100.00
44457;BME280;30159;49.316;8.558;2023-05-12T00:52:45;100154.16;;;13.78;100.00
44457;BME280;30159;49.316;8.558;2023-05-12T00:55:11;100149.97;;;13.58;100.00
44457;BME280;30159;49.316;8.558;2023-05-12T00:57:39;100133.38;;;13.37;100.00
44457;BME280;30159;49.316;8.558;2023-05-12T01:00:08;100151.44;;;13.42;100.00
44457;BME280;30159;49.316;8.558;2023-05-12T01:02:35;100155.63;;;13.48;100.00
44457;BME280;30159;49.316;8.558;2023-05-12T01:05:02;100149.50;;;13.42;100.00
44457;BME280;30159;49.316;8.558;2023-05-12T01:07:31;100142.28;;;13.38;100.00
44457;BME280;30159;49.316;8.558;2023-05-12T01:09:58;100141.00;;;13.35;100.00
44457;BME280;30159;49.316;8.558;2023-05-12T01:12:25;100126.34;;;13.22;100.00
44457;BME280;30159;49.316;8.558;2023-05-12T01:14:54;100145.72;;;13.30;100.00
44457;BME280;30159;49.316;8.558;2023-05-12T01:17:25;100142.59;;;13.22;100.00
44457;BME280;30159;49.316;8.558;2023-05-12T01:19:55;100146.53;;;13.16;100.00
44457;BME280;30159;49.316;8.558;2023-05-12T01:22:23;100146.41;;;13.21;100.00
44457;BME280;30159;49.316;8.558;2023-05-12T01:24:53;100143.91;;;13.39;100.00
44457;BME280;30159;49.316;8.558;2023-05-12T01:27:22;100140.91;;;13.26;100.00
44457;BME280;30159;49.316;8.558;2023-05-12T01:29:52;100147.31;;;13.31;100.00
44457;BME280;30159;49.316;8.558;2023-05-12T01:32:20;100145.13;;;13.33;100.00
44457;BME280;30159;49.316;8.558;2023-05-12T01:34:47;100155.75;;;13.43;100.00
44457;BME280;30159;49.316;8.558;2023-05-12T01:37:14;100149.47;;;13.56;100.00
44457;BME280;30159;49.316;8.558;2023-05-12T01:39:41;100147.88;;;13.55;100.00
44457;BME280;30159;49.316;8.558;2023-05-12T01:42:07;100152.47;;;13.68;100.00
44457;BME280;30159;49.316;8.558;2023-05-12T01:44:35;100122.09;;;13.58;100.00
44457;BME280;30159;49.316;8.558;2023-05-12T01:47:02;100141.63;;;13.68;100.00
44457;BME280;30159;49.316;8.558;2023-05-12T01:49:28;100160.00;;;13.72;100.00
44457;BME280;30159;49.316;8.558;2023-05-12T01:51:55;100148.66;;;13.69;100.00
44457;BME280;30159;49.316;8.558;2023-05-12T01:54:21;100144.03;;;13.70;100.00
44457;BME280;30159;49.316;8.558;2023-05-12T01:56:48;100138.59;;;13.70;100.00
44457;BME280;30159;49.316;8.558;2023-05-12T01:59:14;100145.56;;;13.62;100.00
44457;BME280;30159;49.316;8.558;2023-05-12T02:01:42;100149.28;;;13.66;100.00
44457;BME280;30159;49.316;8.558;2023-05-12T02:04:09;100137.22;;;13.59;100.00
44457;BME280;30159;49.316;8.558;2023-05-12T02:06:35;100144.06;;;13.56;100.00
44457;BME280;30159;49.316;8.558;2023-05-12T02:09:02;100085.56;;;13.05;100.00
44457;BME280;30159;49.316;8.558;2023-05-12T02:11:29;100135.28;;;13.37;100.00
44457;BME280;30159;49.316;8.558;2023-05-12T02:13:56;100134.66;;;13.40;100.00
44457;BME280;30159;49.316;8.558;2023-05-12T02:16:23;100141.84;;;13.58;100.00
44457;BME280;30159;49.316;8.558;2023-05-12T02:18:50;100151.09;;;13.57;100.00
44457;BME280;30159;49.316;8.558;2023-05-12T02:21:17;100146.78;;;13.56;100.00
44457;BME280;30159;49.316;8.558;2023-05-12T02:23:44;100128.88;;;13.33;100.00
44457;BME280;30159;49.316;8.558;2023-05-12T02:26:10;100144.28;;;13.46;100.00
44457;BME280;30159;49.316;8.558;2023-05-12T02:28:37;100139.16;;;13.44;100.00
44457;BME280;30159;49.316;8.558;2023-05-12T02:31:04;100149.31;;;13.53;100.00
44457;BME280;30159;49.316;8.558;2023-05-12T02:33:30;100143.16;;;13.61;100.00
44457;BME280;30159;49.316;8.558;2023-05-12T02:35:58;100127.31;;;13.54;100.00
44457;BME280;30159;49.316;8.558;2023-05-12T02:38:24;100142.09;;;13.48;100.00
44457;BME280;30159;49.316;8.558;2023-05-12T02:40:51;100136.44;;;13.58;100.00
44457;BME280;30159;49.316;8.558;2023-05-12T02:43:18;100134.22;;;13.60;100.00
44457;BME280;30159;49.316;8.558;2023-05-12T02:45:44;100063.69;;;13.15;100.00
44457;BME280;30159;49.316;8.558;2023-05-12T02:48:11;100136.22;;;13.68;100.00
44457;BME280;30159;49.316;8.558;2023-05-12T02:50:37;100137.06;;;13.55;100.00
44457;BME280;30159;49.316;8.558;2023-05-12T02:53:05;100127.84;;;13.42;100.00
44457;BME280;30159;49.316;8.558;2023-05-12T02:55:32;100093.97;;;13.17;100.00
44457;BME280;30159;49.316;8.558;2023-05-12T02:57:58;100136.75;;;13.57;100.00
44457;BME280;30159;49.316;8.558;2023-05-12T03:00:25;100137.94;;;13.64;100.00
44457;BME280;30159;49.316;8.558;2023-05-12T03:02:52;100138.66;;;13.42;100.00
44457;BME280;30159;49.316;8.558;2023-05-12T03:05:18;100135.28;;;13.37;100.00
44457;BME280;30159;49.316;8.558;2023-05-12T03:07:46;100079.97;;;12.88;100.00
44457;BME280;30159;49.316;8.558;2023-05-12T03:10:15;100138.13;;;13.32;100.00
44457;BME280;30159;49.316;8.558;2023-05-12T03:12:42;100137.78;;;13.33;100.00
44457;BME280;30159;49.316;8.558;2023-05-12T03:15:09;100132.69;;;13.32;100.00
44457;BME280;30159;49.316;8.558;2023-05-12T03:17:35;100144.00;;;13.47;100.00
44457;BME280;30159;49.316;8.558;2023-05-12T03:20:02;100138.88;;;13.46;100.00
44457;BME280;30159;49.316;8.558;2023-05-12T03:22:29;100136.56;;;13.53;100.00
44457;BME280;30159;49.316;8.558;2023-05-12T03:24:56;100134.84;;;13.57;100.00
44457;BME280;30159;49.316;8.558;2023-05-12T03:27:24;100148.28;;;13.62;100.00
44457;BME280;30159;49.316;8.558;2023-05-12T03:29:50;100142.22;;;13.65;100.00
44457;BME280;30159;49.316;8.558;2023-05-12T03:32:17;100136.00;;;13.65;100.00
44457;BME280;30159;49.316;8.558;2023-05-12T03:34:43;100136.69;;;13.70;100.00
44457;BME280;30159;49.316;8.558;2023-05-12T03:37:10;100152.47;;;13.68;100.00
44457;BME280;30159;49.316;8.558;2023-05-12T03:39:37;100136.94;;;13.60;100.00
44457;BME280;30159;49.316;8.558;2023-05-12T03:42:04;100138.44;;;13.66;100.00
44457;BME280;30159;49.316;8.558;2023-05-12T03:44:34;100146.06;;;13.64;100.00
44457;BME280;30159;49.316;8.558;2023-05-12T03:47:01;100138.44;;;13.66;100.00
44457;BME280;30159;49.316;8.558;2023-05-12T03:49:27;100142.09;;;13.70;100.00
44457;BME280;30159;49.316;8.558;2023-05-12T03:51:54;100120.78;;;13.55;100.00
44457;BME280;30159;49.316;8.558;2023-05-12T03:54:20;100144.81;;;13.70;100.00
44457;BME280;30159;49.316;8.558;2023-05-12T03:56:47;100135.59;;;13.72;100.00
44457;BME280;30159;49.316;8.558;2023-05-12T03:59:14;100136.69;;;13.70;100.00
44457;BME280;30159;49.316;8.558;2023-05-12T04:01:41;100141.00;;;13.72;100.00
44457;BME280;30159;49.316;8.558;2023-05-12T04:04:08;100138.19;;;13.77;100.00
44457;BME280;30159;49.316;8.558;2023-05-12T04:06:34;100128.19;;;13.63;100.00
44457;BME280;30159;49.316;8.558;2023-05-12T04:09:01;100136.97;;;13.83;100.00
44457;BME280;30159;49.316;8.558;2023-05-12T04:11:28;100136.47;;;13.81;100.00
44457;BME280;30159;49.316;8.558;2023-05-12T04:13:54;100128.75;;;13.74;100.00
44457;BME280;30159;49.316;8.558;2023-05-12T04:16:21;100135.34;;;13.82;100.00
44457;BME280;30159;49.316;8.558;2023-05-12T04:18:49;100135.50;;;13.63;100.00
44457;BME280;30159;49.316;8.558;2023-05-12T04:21:16;100095.16;;;13.25;100.00
44457;BME280;30159;49.316;8.558;2023-05-12T04:23:42;100146.06;;;13.64;100.00
44457;BME280;30159;49.316;8.558;2023-05-12T04:26:09;100143.25;;;13.56;100.00
44457;BME280;30159;49.316;8.558;2023-05-12T04:28:35;100101.38;;;13.12;100.00
44457;BME280;30159;49.316;8.558;2023-05-12T04:31:02;100147.03;;;13.32;100.00
44457;BME280;30159;49.316;8.558;2023-05-12T04:33:29;100153.09;;;13.52;100.00
44457;BME280;30159;49.316;8.558;2023-05-12T04:35:57;100129.34;;;13.48;100.00
44457;BME280;30159;49.316;8.558;2023-05-12T04:38:24;100075.53;;;13.19;100.00
44457;BME280;30159;49.316;8.558;2023-05-12T04:40:56;100153.44;;;13.73;100.00
44457;BME280;30159;49.316;8.558;2023-05-12T04:43:23;100151.94;;;13.80;100.00
44457;BME280;30159;49.316;8.558;2023-05-12T04:45:49;100144.59;;;13.81;100.00
44457;BME280;30159;49.316;8.558;2023-05-12T04:48:18;100133.31;;;13.87;100.00
44457;BME280;30159;49.316;8.558;2023-05-12T04:50:47;100150.69;;;13.86;100.00
44457;BME280;30159;49.316;8.558;2023-05-12T04:53:15;100150.75;;;13.95;100.00
44457;BME280;30159;49.316;8.558;2023-05-12T04:55:42;100158.41;;;13.93;100.00
44457;BME280;30159;49.316;8.558;2023-05-12T04:58:10;100152.44;;;13.82;100.00
44457;BME280;30159;49.316;8.558;2023-05-12T05:00:37;100160.47;;;13.96;100.00
44457;BME280;30159;49.316;8.558;2023-05-12T05:03:03;100157.03;;;13.82;100.00
44457;BME280;30159;49.316;8.558;2023-05-12T05:05:30;100113.53;;;13.64;100.00
44457;BME280;30159;49.316;8.558;2023-05-12T05:07:57;100132.81;;;13.63;100.00
44457;BME280;30159;49.316;8.558;2023-05-12T05:10:25;100157.53;;;14.06;100.00
44457;BME280;30159;49.316;8.558;2023-05-12T05:12:52;100169.97;;;14.07;100.00
44457;BME280;30159;49.316;8.558;2023-05-12T05:15:18;100159.03;;;13.90;100.00
44457;BME280;30159;49.316;8.558;2023-05-12T05:17:45;100167.78;;;14.09;100.00
44457;BME280;30159;49.316;8.558;2023-05-12T05:20:13;100163.56;;;14.26;100.00
44457;BME280;30159;49.316;8.558;2023-05-12T05:22:40;100161.84;;;14.30;100.00
44457;BME280;30159;49.316;8.558;2023-05-12T05:25:07;100166.41;;;14.43;100.00
44457;BME280;30159;49.316;8.558;2023-05-12T05:27:36;100168.50;;;14.24;100.00
44457;BME280;30159;49.316;8.558;2023-05-12T05:30:03;100163.03;;;14.15;100.00
44457;BME280;30159;49.316;8.558;2023-05-12T05:32:30;100169.84;;;14.35;100.00
44457;BME280;30159;49.316;8.558;2023-05-12T05:34:57;100175.28;;;14.35;100.00
44457;BME280;30159;49.316;8.558;2023-05-12T05:37:23;100139.00;;;14.31;100.00
44457;BME280;30159;49.316;8.558;2023-05-12T05:39:50;100181.22;;;14.60;100.00
44457;BME280;30159;49.316;8.558;2023-05-12T05:42:16;100150.13;;;14.43;100.00
44457;BME280;30159;49.316;8.558;2023-05-12T05:44:44;100172.28;;;14.68;100.00
44457;BME280;30159;49.316;8.558;2023-05-12T05:47:11;100129.56;;;14.20;100.00
44457;BME280;30159;49.316;8.558;2023-05-12T05:49:37;100179.00;;;14.70;100.00
44457;BME280;30159;49.316;8.558;2023-05-12T05:52:04;100181.34;;;14.54;100.00
44457;BME280;30159;49.316;8.558;2023-05-12T05:54:31;100180.47;;;14.45;100.00
44457;BME280;30159;49.316;8.558;2023-05-12T05:56:57;100179.03;;;14.48;100.00
44457;BME280;30159;49.316;8.558;2023-05-12T05:59:26;100180.22;;;14.56;100.00
44457;BME280;30159;49.316;8.558;2023-05-12T06:01:54;100183.84;;;14.73;100.00
44457;BME280;30159;49.316;8.558;2023-05-12T06:04:20;100189.38;;;14.68;100.00
44457;BME280;30159;49.316;8.558;2023-05-12T06:06:47;100157.50;;;14.51;100.00
44457;BME280;30159;49.316;8.558;2023-05-12T06:09:13;100130.09;;;14.30;100.00
44457;BME280;30159;49.316;8.558;2023-05-12T06:11:40;100164.63;;;14.39;100.00
44457;BME280;30159;49.316;8.558;2023-05-12T06:14:07;100189.84;;;14.62;100.00
44457;BME280;30159;49.316;8.558;2023-05-12T06:16:33;100193.03;;;14.64;100.00
44457;BME280;30159;49.316;8.558;2023-05-12T06:19:01;100201.22;;;14.72;100.00
44457;BME280;30159;49.316;8.558;2023-05-12T06:21:28;100194.09;;;14.85;100.00
44457;BME280;30159;49.316;8.558;2023-05-12T06:23:55;100199.19;;;14.78;100.00
44457;BME280;30159;49.316;8.558;2023-05-12T06:26:22;100201.41;;;14.76;100.00
44457;BME280;30159;49.316;8.558;2023-05-12T06:28:48;100200.44;;;14.72;100.00
44457;BME280;30159;49.316;8.558;2023-05-12T06:31:15;100212.97;;;14.90;100.00
44457;BME280;30159;49.316;8.558;2023-05-12T06:33:41;100199.69;;;14.89;100.00
44457;BME280;30159;49.316;8.558;2023-05-12T06:36:09;100199.75;;;14.98;100.00
44457;BME280;30159;49.316;8.558;2023-05-12T06:38:36;100197.91;;;15.24;100.00
44457;BME280;30159;49.316;8.558;2023-05-12T06:41:03;100198.94;;;15.46;100.00
44457;BME280;30159;49.316;8.558;2023-05-12T06:43:29;100201.59;;;15.28;100.00
44457;BME280;30159;49.316;8.558;2023-05-12T06:45:56;100208.81;;;15.42;100.00
44457;BME280;30159;49.316;8.558;2023-05-12T06:48:22;100205.50;;;15.62;100.00
44457;BME280;30159;49.316;8.558;2023-05-12T06:50:49;100197.84;;;15.64;100.00
44457;BME280;30159;49.316;8.558;2023-05-12T06:53:17;100203.09;;;15.52;100.00
44457;BME280;30159;49.316;8.558;2023-05-12T06:55:44;100207.47;;;15.70;100.00
44457;BME280;30159;49.316;8.558;2023-05-12T06:58:11;100206.94;;;15.68;100.00
44457;BME280;30159;49.316;8.558;2023-05-12T07:00:37;100189.19;;;15.62;100.00
44457;BME280;30159;49.316;8.558;2023-05-12T07:03:04;100199.09;;;15.58;100.00
44457;BME280;30159;49.316;8.558;2023-05-12T07:05:34;100201.34;;;15.56;100.00
44457;BME280;30159;49.316;8.558;2023-05-12T07:08:00;100199.75;;;15.55;100.00
44457;BME280;30159;49.316;8.558;2023-05-12T07:10:28;100155.25;;;15.42;100.00
44457;BME280;30159;49.316;8.558;2023-05-12T07:12:56;100212.69;;;15.58;100.00
44457;BME280;30159;49.316;8.558;2023-05-12T07:15:22;100175.19;;;15.11;100.00
44457;BME280;30159;49.316;8.558;2023-05-12T07:17:49;100216.88;;;15.07;100.00
44457;BME280;30159;49.316;8.558;2023-05-12T07:20:15;100205.31;;;14.92;100.00
44457;BME280;30159;49.316;8.558;2023-05-12T07:22:42;100211.53;;;14.93;100.00
44457;BME280;30159;49.316;8.558;2023-05-12T07:25:09;100160.38;;;14.86;100.00
44457;BME280;30159;49.316;8.558;2023-05-12T07:27:37;100212.56;;;15.14;100.00
44457;BME280;30159;49.316;8.558;2023-05-12T07:30:04;100214.91;;;14.99;100.00
44457;BME280;30159;49.316;8.558;2023-05-12T07:32:31;100162.13;;;14.82;100.00
44457;BME280;30159;49.316;8.558;2023-05-12T07:34:58;100199.28;;;15.04;100.00
44457;BME280;30159;49.316;8.558;2023-05-12T07:37:25;100215.84;;;14.94;100.00
44457;BME280;30159;49.316;8.558;2023-05-12T07:39:51;100212.34;;;14.93;100.00
44457;BME280;30159;49.316;8.558;2023-05-12T07:42:18;100213.59;;;14.87;100.00
44457;BME280;30159;49.316;8.558;2023-05-12T07:44:46;100210.88;;;14.87;100.00
44457;BME280;30159;49.316;8.558;2023-05-12T07:47:13;100212.44;;;14.80;100.00
44457;BME280;30159;49.316;8.558;2023-05-12T07:49:40;100213.13;;;14.85;100.00
44457;BME280;30159;49.316;8.558;2023-05-12T07:52:06;100210.19;;;14.50;100.00
44457;BME280;30159;49.316;8.558;2023-05-12T07:54:33;100198.09;;;14.34;100.00
44457;BME280;30159;49.316;8.558;2023-05-12T07:56:59;100169.44;;;14.19;100.00
44457;BME280;30159;49.316;8.558;2023-05-12T07:59:26;100205.47;;;14.42;100.00
44457;BME280;30159;49.316;8.558;2023-05-12T08:01:54;100172.41;;;14.31;100.00
44457;BME280;30159;49.316;8.558;2023-05-12T08:04:20;100210.66;;;14.75;100.00
44457;BME280;30159;49.316;8.558;2023-05-12T08:06:47;100206.16;;;14.70;100.00
44457;BME280;30159;49.316;8.558;2023-05-12T08:09:14;100216.91;;;14.75;100.00
44457;BME280;30159;49.316;8.558;2023-05-12T08:11:40;100217.28;;;14.60;100.00
44457;BME280;30159;49.316;8.558;2023-05-12T08:14:08;100164.69;;;14.25;100.00
44457;BME280;30159;49.316;8.558;2023-05-12T08:16:34;100224.81;;;14.63;100.00
44457;BME280;30159;49.316;8.558;2023-05-12T08:19:02;100203.91;;;14.41;100.00
44457;BME280;30159;49.316;8.558;2023-05-12T08:21:29;100216.31;;;14.33;100.00
44457;BME280;30159;49.316;8.558;2023-05-12T08:23:55;100226.47;;;14.50;100.00
44457;BME280;30159;49.316;8.558;2023-05-12T08:26:22;100062.53;;;13.66;100.00
44457;BME280;30159;49.316;8.558;2023-05-12T08:28:49;100215.28;;;14.74;100.00
44457;BME280;30159;49.316;8.558;2023-05-12T08:31:16;100219.50;;;14.89;100.00
44457;BME280;30159;49.316;8.558;2023-05-12T08:33:42;100205.47;;;14.96;100.00
44457;BME280;30159;49.316;8.558;2023-05-12T08:36:10;100219.88;;;15.54;100.00
44457;BME280;30159;49.316;8.558;2023-05-12T08:38:37;100207.44;;;16.40;100.00
44457;BME280;30159;49.316;8.558;2023-05-12T08:41:11;100212.41;;;17.02;100.00
44457;BME280;30159;49.316;8.558;2023-05-12T08:43:42;100196.59;;;18.18;100.00
44457;BME280;30159;49.316;8.558;2023-05-12T08:46:11;100216.50;;;19.22;100.00
44457;BME280;30159;49.316;8.558;2023-05-12T08:48:39;100218.41;;;18.85;99.07
44457;BME280;30159;49.316;8.558;2023-05-12T08:51:07;100209.22;;;19.14;95.55
44457;BME280;30159;49.316;8.558;2023-05-12T08:53:38;100218.88;;;17.78;100.00
44457;BME280;30159;49.316;8.558;2023-05-12T08:56:07;100218.50;;;17.38;100.00
44457;BME280;30159;49.316;8.558;2023-05-12T08:58:35;100147.84;;;16.56;100.00
44457;BME280;30159;49.316;8.558;2023-05-12T09:01:03;100209.31;;;16.65;100.00
44457;BME280;30159;49.316;8.558;2023-05-12T09:03:30;100217.97;;;16.50;100.00
44457;BME280;30159;49.316;8.558;2023-05-12T09:05:58;100220.25;;;16.48;100.00
44457;BME280;30159;49.316;8.558;2023-05-12T09:08:28;100214.03;;;16.30;100.00
44457;BME280;30159;49.316;8.558;2023-05-12T09:10:57;100223.31;;;16.20;100.00
44457;BME280;30159;49.316;8.558;2023-05-12T09:13:27;100219.13;;;16.49;100.00
44457;BME280;30159;49.316;8.558;2023-05-12T09:15:56;100225.41;;;16.23;100.00
44457;BME280;30159;49.316;8.558;2023-05-12T09:18:24;100217.53;;;16.31;100.00
44457;BME280;30159;49.316;8.558;2023-05-12T09:20:51;100219.59;;;16.34;100.00
44457;BME280;30159;49.316;8.558;2023-05-12T09:23:19;100220.44;;;16.34;100.00
44457;BME280;30159;49.316;8.558;2023-05-12T09:25:46;100221.09;;;16.22;100.00
44457;BME280;30159;49.316;8.558;2023-05-12T09:28:33;100217.34;;;16.53;100.00
44457;BME280;30159;49.316;8.558;2023-05-12T09:30:59;100216.25;;;17.01;100.00
44457;BME280;30159;49.316;8.558;2023-05-12T09:33:26;100217.66;;;17.46;100.00
44457;BME280;30159;49.316;8.558;2023-05-12T09:35:52;100200.31;;;17.51;100.00
44457;BME280;30159;49.316;8.558;2023-05-12T09:38:19;100214.19;;;17.87;100.00
44457;BME280;30159;49.316;8.558;2023-05-12T09:40:46;100208.09;;;18.24;99.25
44457;BME280;30159;49.316;8.558;2023-05-12T09:43:12;100213.19;;;18.46;97.98
44457;BME280;30159;49.316;8.558;2023-05-12T09:45:40;100210.19;;;18.72;92.41
44457;BME280;30159;49.316;8.558;2023-05-12T09:48:08;100211.53;;;18.33;91.17
44457;BME280;30159;49.316;8.558;2023-05-12T09:50:42;100208.44;;;18.01;94.10
44457;BME280;30159;49.316;8.558;2023-05-12T09:53:10;100179.38;;;17.34;97.32
44457;BME280;30159;49.316;8.558;2023-05-12T09:55:37;100215.72;;;17.17;100.00
44457;BME280;30159;49.316;8.558;2023-05-12T09:58:07;100164.34;;;16.51;100.00
44457;BME280;30159;49.316;8.558;2023-05-12T10:00:34;100216.50;;;16.70;100.00
44457;BME280;30159;49.316;8.558;2023-05-12T10:03:09;100214.81;;;16.48;100.00
44457;BME280;30159;49.316;8.558;2023-05-12T10:05:38;100217.47;;;16.65;100.00
44457;BME280;30159;49.316;8.558;2023-05-12T10:08:10;100184.50;;;16.50;100.00
44457;BME280;30159;49.316;8.558;2023-05-12T10:10:39;100220.88;;;16.54;100.00
44457;BME280;30159;49.316;8.558;2023-05-12T10:13:06;100216.03;;;16.59;100.00
44457;BME280;30159;49.316;8.558;2023-05-12T10:15:33;100214.28;;;16.81;100.00
44457;BME280;30159;49.316;8.558;2023-05-12T10:18:00;100222.44;;;17.19;100.00
44457;BME280;30159;49.316;8.558;2023-05-12T10:20:29;100225.59;;;17.30;98.34
44457;BME280;30159;49.316;8.558;2023-05-12T10:22:56;100215.81;;;17.29;97.81
44457;BME280;30159;49.316;8.558;2023-05-12T10:25:24;100209.84;;;17.36;97.47
44457;BME280;30159;49.316;8.558;2023-05-12T10:27:51;100209.19;;;17.60;99.52
44457;BME280;30159;49.316;8.558;2023-05-12T10:30:18;100227.16;;;18.11;95.89
44457;BME280;30159;49.316;8.558;2023-05-12T10:32:45;100220.13;;;17.60;93.21
44457;BME280;30159;49.316;8.558;2023-05-12T10:35:13;100215.78;;;17.88;93.66
44457;BME280;30159;49.316;8.558;2023-05-12T10:37:42;100216.13;;;17.57;94.35
44457;BME280;30159;49.316;8.558;2023-05-12T10:40:09;100200.44;;;18.17;94.28
44457;BME280;30159;49.316;8.558;2023-05-12T10:42:37;100212.44;;;18.58;88.38
44457;BME280;30159;49.316;8.558;2023-05-12T10:45:14;100187.41;;;18.68;89.23
44457;BME280;30159;49.316;8.558;2023-05-12T10:47:43;100210.66;;;19.48;86.44
44457;BME280;30159;49.316;8.558;2023-05-12T10:50:10;100207.34;;;19.55;84.60
44457;BME280;30159;49.316;8.558;2023-05-12T10:52:39;100206.81;;;19.49;81.22
44457;BME280;30159;49.316;8.558;2023-05-12T10:55:11;100205.81;;;19.94;83.07
44457;BME280;30159;49.316;8.558;2023-05-12T10:57:47;100204.63;;;20.96;79.68
44457;BME280;30159;49.316;8.558;2023-05-12T11:00:15;100198.41;;;21.31;77.71
44457;BME280;30159;49.316;8.558;2023-05-12T11:02:48;100194.28;;;20.73;76.73
44457;BME280;30159;49.316;8.558;2023-05-12T11:05:15;100208.41;;;20.59;76.41
44457;BME280;30159;49.316;8.558;2023-05-12T11:07:46;100198.63;;;19.90;76.21
44457;BME280;30159;49.316;8.558;2023-05-12T11:10:15;100208.13;;;18.69;81.68
44457;BME280;30159;49.316;8.558;2023-05-12T11:12:42;100189.97;;;17.86;87.97
44457;BME280;30159;49.316;8.558;2023-05-12T11:15:11;100198.56;;;17.46;90.46
44457;BME280;30159;49.316;8.558;2023-05-12T11:17:38;100197.22;;;17.52;91.49
44457;BME280;30159;49.316;8.558;2023-05-12T11:20:06;100203.31;;;17.58;94.14
44457;BME280;30159;49.316;8.558;2023-05-12T11:22:35;100200.75;;;17.74;93.03
44457;BME280;30159;49.316;8.558;2023-05-12T11:25:09;100201.16;;;17.42;96.76
44457;BME280;30159;49.316;8.558;2023-05-12T11:27:37;100206.91;;;17.41;99.52
44457;BME280;30159;49.316;8.558;2023-05-12T11:30:08;100209.44;;;17.25;98.58
44457;BME280;30159;49.316;8.558;2023-05-12T11:32:35;100214.88;;;17.25;99.05
44457;BME280;30159;49.316;8.558;2023-05-12T11:35:10;100208.91;;;17.32;100.00
44457;BME280;30159;49.316;8.558;2023-05-12T11:37:37;100123.72;;;16.84;98.97
44457;BME280;30159;49.316;8.558;2023-05-12T11:40:15;100216.84;;;17.45;99.78
44457;BME280;30159;49.316;8.558;2023-05-12T11:42:44;100187.63;;;17.25;100.00
44457;BME280;30159;49.316;8.558;2023-05-12T11:45:23;100213.06;;;17.59;100.00
44457;BME280;30159;49.316;8.558;2023-05-12T11:48:04;100216.28;;;17.61;100.00
44457;BME280;30159;49.316;8.558;2023-05-12T11:50:31;100213.22;;;17.62;100.00
44457;BME280;30159;49.316;8.558;2023-05-12T11:52:58;100215.88;;;17.71;100.00
44457;BME280;30159;49.316;8.558;2023-05-12T11:55:25;100215.53;;;17.81;100.00
44457;BME280;30159;49.316;8.558;2023-05-12T11:57:57;100224.31;;;17.78;100.00
44457;BME280;30159;49.316;8.558;2023-05-12T12:00:27;100219.53;;;17.75;100.00
44457;BME280;30159;49.316;8.558;2023-05-12T12:03:08;100108.09;;;17.02;100.00
44457;BME280;30159;49.316;8.558;2023-05-12T12:05:35;100186.19;;;17.48;100.00
44457;BME280;30159;49.316;8.558;2023-05-12T12:08:07;100223.78;;;17.64;100.00
44457;BME280;30159;49.316;8.558;2023-05-12T12:10:34;100228.19;;;17.56;100.00
44457;BME280;30159;49.316;8.558;2023-05-12T12:13:02;100233.31;;;17.58;100.00
44457;BME280;30159;49.316;8.558;2023-05-12T12:15:28;100231.91;;;17.81;100.00
44457;BME280;30159;49.316;8.558;2023-05-12T12:17:55;100227.31;;;18.27;100.00
44457;BME280;30159;49.316;8.558;2023-05-12T12:20:22;100231.53;;;18.58;100.00
44457;BME280;30159;49.316;8.558;2023-05-12T12:22:49;100231.41;;;18.54;100.00
44457;BME280;30159;49.316;8.558;2023-05-12T12:25:16;100237.91;;;18.62;100.00
44457;BME280;30159;49.316;8.558;2023-05-12T12:27:43;100203.38;;;18.12;100.00
44457;BME280;30159;49.316;8.558;2023-05-12T12:30:13;100233.88;;;18.14;100.00
44457;BME280;30159;49.316;8.558;2023-05-12T12:32:39;100234.16;;;18.00;100.00
44457;BME280;30159;49.316;8.558;2023-05-12T12:35:06;100247.19;;;17.95;100.00
44457;BME280;30159;49.316;8.558;2023-05-12T12:37:33;100249.91;;;17.95;100.00
44457;BME280;30159;49.316;8.558;2023-05-12T12:39:59;100248.06;;;17.86;100.00
44457;BME280;30159;49.316;8.558;2023-05-12T12:42:32;100239.56;;;17.88;100.00